sensor_id;sensor_type;location;lat;lon;timestamp;P1;durP1;ratioP1;P2;durP2;ratioP2
40827;SDS011;26549;50.918;5.338;2023-04-16T00:00:46;8.95;;;2.90;;
40827;SDS011;26549;50.918;5.338;2023-04-16T00:03:13;6.70;;;3.22;;
40827;SDS011;26549;50.918;5.338;2023-04-16T00:05:39;5.18;;;2.47;;
40827;SDS011;26549;50.918;5.338;2023-04-16T00:08:06;7.97;;;3.83;;
40827;SDS011;26549;50.918;5.338;2023-04-16T00:10:33;3.80;;;3.03;;
40827;SDS011;26549;50.918;5.338;2023-04-16T00:12:59;9.55;;;3.72;;
40827;SDS011;26549;50.918;5.338;2023-04-16T00:15:24;6.15;;;3.35;;
40827;SDS011;26549;50.918;5.338;2023-04-16T00:17:50;3.05;;;2.47;;
40827;SDS011;26549;50.918;5.338;2023-04-16T00:20:16;8.10;;;3.40;;
40827;SDS011;26549;50.918;5.338;2023-04-16T00:22:42;7.80;;;2.85;;
40827;SDS011;26549;50.918;5.338;2023-04-16T00:25:08;5.95;;;3.45;;
40827;SDS011;26549;50.918;5.338;2023-04-16T00:27:33;11.43;;;4.22;;
40827;SDS011;26549;50.918;5.338;2023-04-16T00:29:59;10.40;;;4.72;;
40827;SDS011;26549;50.918;5.338;2023-04-16T00:32:25;10.25;;;3.70;;
40827;SDS011;26549;50.918;5.338;2023-04-16T00:34:51;6.70;;;4.35;;
40827;SDS011;26549;50.918;5.338;2023-04-16T00:37:16;6.70;;;3.45;;
40827;SDS011;26549;50.918;5.338;2023-04-16T00:39:42;6.40;;;3.88;;
40827;SDS011;26549;50.918;5.338;2023-04-16T00:42:09;4.20;;;3.35;;
40827;SDS011;26549;50.918;5.338;2023-04-16T00:44:35;7.28;;;4.15;;
40827;SDS011;26549;50.918;5.338;2023-04-16T00:47:01;3.83;;;3.10;;
40827;SDS011;26549;50.918;5.338;2023-04-16T00:49:28;8.18;;;4.32;;
40827;SDS011;26549;50.918;5.338;2023-04-16T00:51:56;9.07;;;3.63;;
40827;SDS011;26549;50.918;5.338;2023-04-16T00:54:21;5.80;;;3.25;;
40827;SDS011;26549;50.918;5.338;2023-04-16T00:56:48;4.28;;;3.30;;
40827;SDS011;26549;50.918;5.338;2023-04-16T00:59:16;5.93;;;3.30;;
40827;SDS011;26549;50.918;5.338;2023-04-16T01:01:42;5.85;;;4.35;;
40827;SDS011;26549;50.918;5.338;2023-04-16T01:04:08;7.93;;;3.80;;
40827;SDS011;26549;50.918;5.338;2023-04-16T01:06:34;7.63;;;3.80;;
40827;SDS011;26549;50.918;5.338;2023-04-16T01:09:00;8.23;;;5.30;;
40827;SDS011;26549;50.918;5.338;2023-04-16T01:11:26;10.23;;;3.70;;
40827;SDS011;26549;50.918;5.338;2023-04-16T01:13:51;6.85;;;3.75;;
40827;SDS011;26549;50.918;5.338;2023-04-16T01:16:17;5.03;;;4.10;;
40827;SDS011;26549;50.918;5.338;2023-04-16T01:18:43;8.90;;;4.00;;
40827;SDS011;26549;50.918;5.338;2023-04-16T01:21:08;6.85;;;3.88;;
40827;SDS011;26549;50.918;5.338;2023-04-16T01:23:35;6.20;;;3.22;;
40827;SDS011;26549;50.918;5.338;2023-04-16T01:26:01;6.28;;;2.92;;
40827;SDS011;26549;50.918;5.338;2023-04-16T01:28:27;8.50;;;3.45;;
40827;SDS011;26549;50.918;5.338;2023-04-16T01:30:52;5.57;;;3.92;;
40827;SDS011;26549;50.918;5.338;2023-04-16T01:33:18;10.00;;;4.07;;
40827;SDS011;26549;50.918;5.338;2023-04-16T01:35:45;7.47;;;3.53;;
40827;SDS011;26549;50.918;5.338;2023-04-16T01:38:11;9.73;;;4.10;;
40827;SDS011;26549;50.918;5.338;2023-04-16T01:40:36;6.57;;;3.30;;
40827;SDS011;26549;50.918;5.338;2023-04-16T01:43:03;5.25;;;3.65;;
40827;SDS011;26549;50.918;5.338;2023-04-16T01:45:32;9.00;;;3.92;;
40827;SDS011;26549;50.918;5.338;2023-04-16T01:47:59;6.78;;;3.33;;
40827;SDS011;26549;50.918;5.338;2023-04-16T01:50:25;7.38;;;3.80;;
40827;SDS011;26549;50.918;5.338;2023-04-16T01:52:51;10.98;;;3.17;;
40827;SDS011;26549;50.918;5.338;2023-04-16T01:55:17;5.30;;;2.75;;
40827;SDS011;26549;50.918;5.338;2023-04-16T01:57:43;5.38;;;3.70;;
40827;SDS011;26549;50.918;5.338;2023-04-16T02:00:09;6.40;;;4.07;;
40827;SDS011;26549;50.918;5.338;2023-04-16T02:02:35;5.18;;;3.55;;
40827;SDS011;26549;50.918;5.338;2023-04-16T02:05:02;10.40;;;5.05;;
40827;SDS011;26549;50.918;5.338;2023-04-16T02:07:27;10.90;;;3.63;;
40827;SDS011;26549;50.918;5.338;2023-04-16T02:09:55;8.85;;;3.67;;
40827;SDS011;26549;50.918;5.338;2023-04-16T02:12:22;7.57;;;3.35;;
40827;SDS011;26549;50.918;5.338;2023-04-16T02:14:48;5.95;;;3.92;;
40827;SDS011;26549;50.918;5.338;2023-04-16T02:17:14;9.77;;;3.67;;
40827;SDS011;26549;50.918;5.338;2023-04-16T02:19:39;6.28;;;3.78;;
40827;SDS011;26549;50.918;5.338;2023-04-16T02:22:05;6.22;;;4.13;;
40827;SDS011;26549;50.918;5.338;2023-04-16T02:24:31;10.38;;;4.60;;
40827;SDS011;26549;50.918;5.338;2023-04-16T02:26:57;9.30;;;4.07;;
40827;SDS011;26549;50.918;5.338;2023-04-16T02:29:22;6.70;;;3.55;;
40827;SDS011;26549;50.918;5.338;2023-04-16T02:31:48;7.53;;;3.80;;
40827;SDS011;26549;50.918;5.338;2023-04-16T02:34:14;6.80;;;4.75;;
40827;SDS011;26549;50.918;5.338;2023-04-16T02:36:40;14.07;;;5.00;;
40827;SDS011;26549;50.918;5.338;2023-04-16T02:39:05;7.15;;;3.80;;
40827;SDS011;26549;50.918;5.338;2023-04-16T02:41:31;7.32;;;4.13;;
40827;SDS011;26549;50.918;5.338;2023-04-16T02:43:57;8.98;;;4.18;;
40827;SDS011;26549;50.918;5.338;2023-04-16T02:46:23;11.35;;;4.45;;
40827;SDS011;26549;50.918;5.338;2023-04-16T02:48:49;8.55;;;4.38;;
40827;SDS011;26549;50.918;5.338;2023-04-16T02:51:14;8.20;;;4.40;;
40827;SDS011;26549;50.918;5.338;2023-04-16T02:53:40;8.70;;;4.82;;
40827;SDS011;26549;50.918;5.338;2023-04-16T02:56:10;7.72;;;4.85;;
40827;SDS011;26549;50.918;5.338;2023-04-16T02:58:36;5.90;;;4.07;;
40827;SDS011;26549;50.918;5.338;2023-04-16T03:01:01;10.70;;;5.03;;
40827;SDS011;26549;50.918;5.338;2023-04-16T03:03:27;7.13;;;4.57;;
40827;SDS011;26549;50.918;5.338;2023-04-16T03:05:53;11.20;;;5.03;;
40827;SDS011;26549;50.918;5.338;2023-04-16T03:08:19;10.23;;;7.28;;
40827;SDS011;26549;50.918;5.338;2023-04-16T03:10:45;8.80;;;4.97;;
40827;SDS011;26549;50.918;5.338;2023-04-16T03:13:11;9.75;;;6.07;;
40827;SDS011;26549;50.918;5.338;2023-04-16T03:15:36;9.88;;;4.63;;
40827;SDS011;26549;50.918;5.338;2023-04-16T03:18:02;7.72;;;4.95;;
40827;SDS011;26549;50.918;5.338;2023-04-16T03:20:28;9.00;;;5.72;;
40827;SDS011;26549;50.918;5.338;2023-04-16T03:22:54;8.00;;;5.47;;
40827;SDS011;26549;50.918;5.338;2023-04-16T03:25:21;7.95;;;5.55;;
40827;SDS011;26549;50.918;5.338;2023-04-16T03:27:47;8.27;;;5.38;;
40827;SDS011;26549;50.918;5.338;2023-04-16T03:30:13;9.52;;;5.40;;
40827;SDS011;26549;50.918;5.338;2023-04-16T03:32:39;9.45;;;5.80;;
40827;SDS011;26549;50.918;5.338;2023-04-16T03:35:05;9.98;;;5.32;;
40827;SDS011;26549;50.918;5.338;2023-04-16T03:37:32;11.32;;;6.93;;
40827;SDS011;26549;50.918;5.338;2023-04-16T03:39:58;8.57;;;6.38;;
40827;SDS011;26549;50.918;5.338;2023-04-16T03:42:24;6.63;;;5.10;;
40827;SDS011;26549;50.918;5.338;2023-04-16T03:44:49;9.80;;;5.43;;
40827;SDS011;26549;50.918;5.338;2023-04-16T03:47:17;14.68;;;6.40;;
40827;SDS011;26549;50.918;5.338;2023-04-16T03:49:43;13.15;;;6.40;;
40827;SDS011;26549;50.918;5.338;2023-04-16T03:52:09;10.80;;;5.80;;
40827;SDS011;26549;50.918;5.338;2023-04-16T03:54:36;10.95;;;6.43;;
40827;SDS011;26549;50.918;5.338;2023-04-16T03:57:02;8.63;;;6.28;;
40827;SDS011;26549;50.918;5.338;2023-04-16T03:59:28;13.77;;;6.35;;
40827;SDS011;26549;50.918;5.338;2023-04-16T04:01:53;10.32;;;7.18;;
40827;SDS011;26549;50.918;5.338;2023-04-16T04:04:19;11.63;;;7.20;;
40827;SDS011;26549;50.918;5.338;2023-04-16T04:06:45;17.95;;;8.95;;
40827;SDS011;26549;50.918;5.338;2023-04-16T04:09:12;11.20;;;7.53;;
40827;SDS011;26549;50.918;5.338;2023-04-16T04:11:40;8.30;;;6.68;;
40827;SDS011;26549;50.918;5.338;2023-04-16T04:14:06;11.45;;;7.07;;
40827;SDS011;26549;50.918;5.338;2023-04-16T04:16:32;9.15;;;7.10;;
40827;SDS011;26549;50.918;5.338;2023-04-16T04:18:59;12.23;;;7.80;;
40827;SDS011;26549;50.918;5.338;2023-04-16T04:21:28;12.95;;;7.90;;
40827;SDS011;26549;50.918;5.338;2023-04-16T04:23:54;15.90;;;9.13;;
40827;SDS011;26549;50.918;5.338;2023-04-16T04:26:19;16.98;;;9.38;;
40827;SDS011;26549;50.918;5.338;2023-04-16T04:28:45;14.50;;;8.15;;
40827;SDS011;26549;50.918;5.338;2023-04-16T04:31:11;12.85;;;8.50;;
40827;SDS011;26549;50.918;5.338;2023-04-16T04:33:37;12.10;;;7.72;;
40827;SDS011;26549;50.918;5.338;2023-04-16T04:36:03;11.90;;;7.65;;
40827;SDS011;26549;50.918;5.338;2023-04-16T04:38:29;13.68;;;7.70;;
40827;SDS011;26549;50.918;5.338;2023-04-16T04:40:55;12.85;;;8.25;;
40827;SDS011;26549;50.918;5.338;2023-04-16T04:43:21;10.10;;;7.43;;
40827;SDS011;26549;50.918;5.338;2023-04-16T04:45:48;16.15;;;8.52;;
40827;SDS011;26549;50.918;5.338;2023-04-16T04:48:14;14.82;;;7.90;;
40827;SDS011;26549;50.918;5.338;2023-04-16T04:50:41;10.52;;;7.20;;
40827;SDS011;26549;50.918;5.338;2023-04-16T04:53:09;12.63;;;8.32;;
40827;SDS011;26549;50.918;5.338;2023-04-16T04:55:38;11.30;;;8.23;;
40827;SDS011;26549;50.918;5.338;2023-04-16T04:58:04;13.23;;;8.38;;
40827;SDS011;26549;50.918;5.338;2023-04-16T05:00:34;12.15;;;7.68;;
40827;SDS011;26549;50.918;5.338;2023-04-16T05:03:01;12.20;;;7.60;;
40827;SDS011;26549;50.918;5.338;2023-04-16T05:05:33;14.68;;;8.48;;
40827;SDS011;26549;50.918;5.338;2023-04-16T05:07:59;11.65;;;8.05;;
40827;SDS011;26549;50.918;5.338;2023-04-16T05:10:25;13.52;;;8.68;;
40827;SDS011;26549;50.918;5.338;2023-04-16T05:12:51;12.13;;;9.13;;
40827;SDS011;26549;50.918;5.338;2023-04-16T05:15:17;13.20;;;8.80;;
40827;SDS011;26549;50.918;5.338;2023-04-16T05:17:43;14.45;;;8.70;;
40827;SDS011;26549;50.918;5.338;2023-04-16T05:20:10;17.00;;;9.88;;
40827;SDS011;26549;50.918;5.338;2023-04-16T05:22:36;15.57;;;9.68;;
40827;SDS011;26549;50.918;5.338;2023-04-16T05:25:02;13.85;;;9.25;;
40827;SDS011;26549;50.918;5.338;2023-04-16T05:27:28;15.90;;;11.05;;
40827;SDS011;26549;50.918;5.338;2023-04-16T05:29:54;19.92;;;10.38;;
40827;SDS011;26549;50.918;5.338;2023-04-16T05:32:21;18.60;;;10.63;;
40827;SDS011;26549;50.918;5.338;2023-04-16T05:34:49;22.52;;;10.32;;
40827;SDS011;26549;50.918;5.338;2023-04-16T05:37:15;21.02;;;12.40;;
40827;SDS011;26549;50.918;5.338;2023-04-16T05:39:40;18.98;;;11.52;;
40827;SDS011;26549;50.918;5.338;2023-04-16T05:42:06;19.85;;;11.38;;
40827;SDS011;26549;50.918;5.338;2023-04-16T05:44:32;14.00;;;10.18;;
40827;SDS011;26549;50.918;5.338;2023-04-16T05:46:58;19.80;;;11.23;;
40827;SDS011;26549;50.918;5.338;2023-04-16T05:49:23;21.15;;;11.43;;
40827;SDS011;26549;50.918;5.338;2023-04-16T05:51:49;18.08;;;11.43;;
40827;SDS011;26549;50.918;5.338;2023-04-16T05:54:15;17.15;;;12.45;;
40827;SDS011;26549;50.918;5.338;2023-04-16T05:56:40;17.70;;;11.68;;
40827;SDS011;26549;50.918;5.338;2023-04-16T05:59:06;20.63;;;11.82;;
40827;SDS011;26549;50.918;5.338;2023-04-16T06:01:32;17.50;;;11.73;;
40827;SDS011;26549;50.918;5.338;2023-04-16T06:03:57;17.98;;;11.65;;
40827;SDS011;26549;50.918;5.338;2023-04-16T06:06:23;22.10;;;11.95;;
40827;SDS011;26549;50.918;5.338;2023-04-16T06:08:50;19.95;;;12.07;;
40827;SDS011;26549;50.918;5.338;2023-04-16T06:11:16;22.10;;;12.02;;
40827;SDS011;26549;50.918;5.338;2023-04-16T06:13:42;20.20;;;11.57;;
40827;SDS011;26549;50.918;5.338;2023-04-16T06:16:07;24.33;;;12.30;;
40827;SDS011;26549;50.918;5.338;2023-04-16T06:18:33;24.30;;;13.43;;
40827;SDS011;26549;50.918;5.338;2023-04-16T06:20:59;17.38;;;10.60;;
40827;SDS011;26549;50.918;5.338;2023-04-16T06:23:24;23.30;;;13.20;;
40827;SDS011;26549;50.918;5.338;2023-04-16T06:25:50;19.67;;;11.80;;
40827;SDS011;26549;50.918;5.338;2023-04-16T06:28:16;18.42;;;10.88;;
40827;SDS011;26549;50.918;5.338;2023-04-16T06:30:41;19.75;;;12.15;;
40827;SDS011;26549;50.918;5.338;2023-04-16T06:33:07;22.67;;;11.98;;
40827;SDS011;26549;50.918;5.338;2023-04-16T06:35:33;21.80;;;11.52;;
40827;SDS011;26549;50.918;5.338;2023-04-16T06:37:59;18.83;;;11.35;;
40827;SDS011;26549;50.918;5.338;2023-04-16T06:40:24;24.98;;;11.00;;
40827;SDS011;26549;50.918;5.338;2023-04-16T06:42:50;19.33;;;10.98;;
40827;SDS011;26549;50.918;5.338;2023-04-16T06:45:16;18.55;;;10.82;;
40827;SDS011;26549;50.918;5.338;2023-04-16T06:47:42;17.58;;;12.02;;
40827;SDS011;26549;50.918;5.338;2023-04-16T06:50:08;22.27;;;11.27;;
40827;SDS011;26549;50.918;5.338;2023-04-16T06:52:34;22.35;;;11.30;;
40827;SDS011;26549;50.918;5.338;2023-04-16T06:55:00;18.15;;;10.85;;
40827;SDS011;26549;50.918;5.338;2023-04-16T06:57:26;18.77;;;10.45;;
40827;SDS011;26549;50.918;5.338;2023-04-16T06:59:52;20.70;;;10.43;;
40827;SDS011;26549;50.918;5.338;2023-04-16T07:02:18;19.10;;;10.77;;
40827;SDS011;26549;50.918;5.338;2023-04-16T07:04:43;16.98;;;10.07;;
40827;SDS011;26549;50.918;5.338;2023-04-16T07:07:09;17.55;;;11.13;;
40827;SDS011;26549;50.918;5.338;2023-04-16T07:09:35;12.82;;;9.27;;
40827;SDS011;26549;50.918;5.338;2023-04-16T07:12:01;14.70;;;9.50;;
40827;SDS011;26549;50.918;5.338;2023-04-16T07:14:26;11.85;;;8.90;;
40827;SDS011;26549;50.918;5.338;2023-04-16T07:16:52;13.40;;;9.88;;
40827;SDS011;26549;50.918;5.338;2023-04-16T07:19:18;19.08;;;9.75;;
40827;SDS011;26549;50.918;5.338;2023-04-16T07:21:44;14.93;;;9.48;;
40827;SDS011;26549;50.918;5.338;2023-04-16T07:24:10;13.30;;;10.15;;
40827;SDS011;26549;50.918;5.338;2023-04-16T07:26:36;17.15;;;10.10;;
40827;SDS011;26549;50.918;5.338;2023-04-16T07:29:01;15.23;;;9.13;;
40827;SDS011;26549;50.918;5.338;2023-04-16T07:31:27;19.52;;;9.65;;
40827;SDS011;26549;50.918;5.338;2023-04-16T07:33:53;17.92;;;9.10;;
40827;SDS011;26549;50.918;5.338;2023-04-16T07:36:19;17.98;;;9.40;;
40827;SDS011;26549;50.918;5.338;2023-04-16T07:38:45;14.27;;;9.30;;
40827;SDS011;26549;50.918;5.338;2023-04-16T07:41:11;16.38;;;8.98;;
40827;SDS011;26549;50.918;5.338;2023-04-16T07:43:37;18.83;;;9.60;;
40827;SDS011;26549;50.918;5.338;2023-04-16T07:46:05;17.08;;;9.32;;
40827;SDS011;26549;50.918;5.338;2023-04-16T07:48:32;19.80;;;8.45;;
40827;SDS011;26549;50.918;5.338;2023-04-16T07:50:57;15.27;;;10.18;;
40827;SDS011;26549;50.918;5.338;2023-04-16T07:53:25;19.35;;;9.52;;
40827;SDS011;26549;50.918;5.338;2023-04-16T07:55:53;21.52;;;10.35;;
40827;SDS011;26549;50.918;5.338;2023-04-16T07:58:20;16.27;;;9.05;;
40827;SDS011;26549;50.918;5.338;2023-04-16T08:00:46;19.52;;;9.48;;
40827;SDS011;26549;50.918;5.338;2023-04-16T08:03:12;18.98;;;9.45;;
40827;SDS011;26549;50.918;5.338;2023-04-16T08:05:39;17.27;;;11.05;;
40827;SDS011;26549;50.918;5.338;2023-04-16T08:08:05;19.85;;;9.55;;
40827;SDS011;26549;50.918;5.338;2023-04-16T08:10:31;16.73;;;9.68;;
40827;SDS011;26549;50.918;5.338;2023-04-16T08:12:59;19.27;;;9.63;;
40827;SDS011;26549;50.918;5.338;2023-04-16T08:15:25;17.13;;;9.82;;
40827;SDS011;26549;50.918;5.338;2023-04-16T08:17:52;16.60;;;10.15;;
40827;SDS011;26549;50.918;5.338;2023-04-16T08:20:18;16.45;;;9.88;;
40827;SDS011;26549;50.918;5.338;2023-04-16T08:22:44;17.48;;;10.02;;
40827;SDS011;26549;50.918;5.338;2023-04-16T08:25:10;18.52;;;10.05;;
40827;SDS011;26549;50.918;5.338;2023-04-16T08:27:36;17.23;;;10.55;;
40827;SDS011;26549;50.918;5.338;2023-04-16T08:30:03;14.40;;;9.32;;
40827;SDS011;26549;50.918;5.338;2023-04-16T08:32:29;21.58;;;9.88;;
40827;SDS011;26549;50.918;5.338;2023-04-16T08:34:55;18.00;;;11.18;;
40827;SDS011;26549;50.918;5.338;2023-04-16T08:37:21;24.20;;;11.18;;
40827;SDS011;26549;50.918;5.338;2023-04-16T08:39:47;18.58;;;10.82;;
40827;SDS011;26549;50.918;5.338;2023-04-16T08:42:26;26.17;;;11.70;;
40827;SDS011;26549;50.918;5.338;2023-04-16T08:45:00;20.33;;;10.18;;
40827;SDS011;26549;50.918;5.338;2023-04-16T08:47:53;22.17;;;10.32;;
40827;SDS011;26549;50.918;5.338;2023-04-16T08:50:22;17.73;;;10.57;;
40827;SDS011;26549;50.918;5.338;2023-04-16T08:52:50;17.50;;;12.43;;
40827;SDS011;26549;50.918;5.338;2023-04-16T08:55:23;18.52;;;10.45;;
40827;SDS011;26549;50.918;5.338;2023-04-16T08:57:57;22.50;;;12.00;;
40827;SDS011;26549;50.918;5.338;2023-04-16T09:00:27;19.63;;;11.80;;
40827;SDS011;26549;50.918;5.338;2023-04-16T09:02:53;19.17;;;11.52;;
40827;SDS011;26549;50.918;5.338;2023-04-16T09:05:19;19.63;;;12.00;;
40827;SDS011;26549;50.918;5.338;2023-04-16T09:07:49;22.48;;;12.88;;
40827;SDS011;26549;50.918;5.338;2023-04-16T09:10:16;22.83;;;13.02;;
40827;SDS011;26549;50.918;5.338;2023-04-16T09:12:43;27.02;;;13.73;;
40827;SDS011;26549;50.918;5.338;2023-04-16T09:15:11;23.08;;;13.52;;
40827;SDS011;26549;50.918;5.338;2023-04-16T09:17:38;20.88;;;14.85;;
40827;SDS011;26549;50.918;5.338;2023-04-16T09:20:04;29.20;;;15.00;;
40827;SDS011;26549;50.918;5.338;2023-04-16T09:22:33;20.10;;;13.50;;
40827;SDS011;26549;50.918;5.338;2023-04-16T09:25:00;23.27;;;13.68;;
40827;SDS011;26549;50.918;5.338;2023-04-16T09:27:26;22.02;;;13.40;;
40827;SDS011;26549;50.918;5.338;2023-04-16T09:29:54;18.63;;;12.90;;
40827;SDS011;26549;50.918;5.338;2023-04-16T09:32:23;19.00;;;11.02;;
40827;SDS011;26549;50.918;5.338;2023-04-16T09:35:00;14.75;;;9.85;;
40827;SDS011;26549;50.918;5.338;2023-04-16T09:37:29;18.08;;;11.15;;
40827;SDS011;26549;50.918;5.338;2023-04-16T09:39:57;23.02;;;10.45;;
40827;SDS011;26549;50.918;5.338;2023-04-16T09:42:28;17.27;;;10.02;;
40827;SDS011;26549;50.918;5.338;2023-04-16T09:44:55;20.88;;;11.85;;
40827;SDS011;26549;50.918;5.338;2023-04-16T09:47:22;16.02;;;9.77;;
40827;SDS011;26549;50.918;5.338;2023-04-16T09:49:49;17.55;;;11.55;;
40827;SDS011;26549;50.918;5.338;2023-04-16T09:52:16;19.15;;;10.80;;
40827;SDS011;26549;50.918;5.338;2023-04-16T09:54:47;25.23;;;12.70;;
40827;SDS011;26549;50.918;5.338;2023-04-16T09:57:18;17.13;;;10.43;;
40827;SDS011;26549;50.918;5.338;2023-04-16T09:59:47;20.90;;;11.95;;
40827;SDS011;26549;50.918;5.338;2023-04-16T10:02:17;22.20;;;13.45;;
40827;SDS011;26549;50.918;5.338;2023-04-16T10:04:47;24.58;;;14.60;;
40827;SDS011;26549;50.918;5.338;2023-04-16T10:07:18;26.83;;;14.30;;
40827;SDS011;26549;50.918;5.338;2023-04-16T10:09:46;22.50;;;13.43;;
40827;SDS011;26549;50.918;5.338;2023-04-16T10:12:13;25.92;;;14.90;;
40827;SDS011;26549;50.918;5.338;2023-04-16T10:14:40;22.38;;;13.38;;
40827;SDS011;26549;50.918;5.338;2023-04-16T10:17:06;21.05;;;12.95;;
40827;SDS011;26549;50.918;5.338;2023-04-16T10:19:33;25.15;;;14.40;;
40827;SDS011;26549;50.918;5.338;2023-04-16T10:22:00;21.45;;;12.73;;
40827;SDS011;26549;50.918;5.338;2023-04-16T10:24:30;19.23;;;12.50;;
40827;SDS011;26549;50.918;5.338;2023-04-16T10:26:57;20.60;;;12.95;;
40827;SDS011;26549;50.918;5.338;2023-04-16T10:29:28;19.35;;;12.07;;
40827;SDS011;26549;50.918;5.338;2023-04-16T10:31:55;19.40;;;12.95;;
40827;SDS011;26549;50.918;5.338;2023-04-16T10:34:22;20.40;;;12.13;;
40827;SDS011;26549;50.918;5.338;2023-04-16T10:36:52;17.75;;;11.88;;
40827;SDS011;26549;50.918;5.338;2023-04-16T10:39:20;17.92;;;12.20;;
40827;SDS011;26549;50.918;5.338;2023-04-16T10:41:50;21.48;;;12.27;;
40827;SDS011;26549;50.918;5.338;2023-04-16T10:44:34;21.33;;;14.25;;
40827;SDS011;26549;50.918;5.338;2023-04-16T10:47:00;17.73;;;10.95;;
40827;SDS011;26549;50.918;5.338;2023-04-16T10:49:26;18.25;;;10.45;;
40827;SDS011;26549;50.918;5.338;2023-04-16T10:51:53;13.93;;;9.30;;
40827;SDS011;26549;50.918;5.338;2023-04-16T10:56:51;22.48;;;10.35;;
40827;SDS011;26549;50.918;5.338;2023-04-16T10:59:18;17.52;;;11.18;;
40827;SDS011;26549;50.918;5.338;2023-04-16T11:01:46;18.67;;;11.77;;
40827;SDS011;26549;50.918;5.338;2023-04-16T11:07:20;20.02;;;12.85;;
40827;SDS011;26549;50.918;5.338;2023-04-16T11:20:08;22.20;;;13.18;;
40827;SDS011;26549;50.918;5.338;2023-04-16T11:22:44;23.50;;;13.68;;
40827;SDS011;26549;50.918;5.338;2023-04-16T11:25:11;23.77;;;12.88;;
40827;SDS011;26549;50.918;5.338;2023-04-16T11:27:36;22.92;;;13.63;;
40827;SDS011;26549;50.918;5.338;2023-04-16T11:30:03;24.50;;;13.57;;
40827;SDS011;26549;50.918;5.338;2023-04-16T11:32:32;19.45;;;13.18;;
40827;SDS011;26549;50.918;5.338;2023-04-16T11:35:00;22.20;;;12.73;;
40827;SDS011;26549;50.918;5.338;2023-04-16T11:37:32;16.83;;;11.32;;
40827;SDS011;26549;50.918;5.338;2023-04-16T11:39:59;20.15;;;11.70;;
40827;SDS011;26549;50.918;5.338;2023-04-16T11:42:26;21.42;;;12.93;;
40827;SDS011;26549;50.918;5.338;2023-04-16T11:44:56;23.23;;;12.63;;
40827;SDS011;26549;50.918;5.338;2023-04-16T11:47:24;17.98;;;11.60;;
40827;SDS011;26549;50.918;5.338;2023-04-16T11:49:52;16.75;;;10.50;;
40827;SDS011;26549;50.918;5.338;2023-04-16T11:52:28;20.10;;;11.98;;
40827;SDS011;26549;50.918;5.338;2023-04-16T11:54:55;25.25;;;15.43;;
40827;SDS011;26549;50.918;5.338;2023-04-16T11:57:25;20.52;;;11.73;;
40827;SDS011;26549;50.918;5.338;2023-04-16T11:59:52;23.08;;;12.55;;
40827;SDS011;26549;50.918;5.338;2023-04-16T12:02:32;22.98;;;13.50;;
40827;SDS011;26549;50.918;5.338;2023-04-16T12:04:59;23.75;;;13.27;;
40827;SDS011;26549;50.918;5.338;2023-04-16T12:07:25;20.52;;;13.10;;
40827;SDS011;26549;50.918;5.338;2023-04-16T12:10:03;20.42;;;12.00;;
40827;SDS011;26549;50.918;5.338;2023-04-16T12:12:31;20.88;;;12.48;;
40827;SDS011;26549;50.918;5.338;2023-04-16T12:14:56;20.52;;;12.15;;
40827;SDS011;26549;50.918;5.338;2023-04-16T12:17:24;24.98;;;11.07;;
40827;SDS011;26549;50.918;5.338;2023-04-16T12:19:54;19.13;;;10.70;;
40827;SDS011;26549;50.918;5.338;2023-04-16T12:22:28;22.35;;;12.32;;
40827;SDS011;26549;50.918;5.338;2023-04-16T12:24:54;20.70;;;11.20;;
40827;SDS011;26549;50.918;5.338;2023-04-16T12:27:22;16.63;;;10.02;;
40827;SDS011;26549;50.918;5.338;2023-04-16T12:30:05;20.60;;;11.85;;
40827;SDS011;26549;50.918;5.338;2023-04-16T12:32:32;22.42;;;12.65;;
40827;SDS011;26549;50.918;5.338;2023-04-16T12:34:57;20.42;;;13.02;;
40827;SDS011;26549;50.918;5.338;2023-04-16T12:37:24;18.52;;;11.80;;
40827;SDS011;26549;50.918;5.338;2023-04-16T12:39:50;20.77;;;12.20;;
40827;SDS011;26549;50.918;5.338;2023-04-16T12:42:16;21.30;;;12.40;;
40827;SDS011;26549;50.918;5.338;2023-04-16T12:44:42;19.50;;;11.02;;
40827;SDS011;26549;50.918;5.338;2023-04-16T12:47:07;19.45;;;11.30;;
40827;SDS011;26549;50.918;5.338;2023-04-16T12:49:34;23.00;;;10.63;;
40827;SDS011;26549;50.918;5.338;2023-04-16T12:52:01;19.58;;;10.75;;
40827;SDS011;26549;50.918;5.338;2023-04-16T12:54:27;21.02;;;12.10;;
40827;SDS011;26549;50.918;5.338;2023-04-16T12:56:55;18.73;;;10.40;;
40827;SDS011;26549;50.918;5.338;2023-04-16T12:59:21;20.73;;;10.40;;
40827;SDS011;26549;50.918;5.338;2023-04-16T13:01:47;19.98;;;11.35;;
40827;SDS011;26549;50.918;5.338;2023-04-16T13:04:13;16.95;;;11.50;;
40827;SDS011;26549;50.918;5.338;2023-04-16T13:06:38;17.38;;;9.88;;
40827;SDS011;26549;50.918;5.338;2023-04-16T13:09:05;16.75;;;10.27;;
40827;SDS011;26549;50.918;5.338;2023-04-16T13:11:31;18.88;;;9.73;;
40827;SDS011;26549;50.918;5.338;2023-04-16T13:13:57;19.38;;;10.35;;
40827;SDS011;26549;50.918;5.338;2023-04-16T13:16:23;19.52;;;11.38;;
40827;SDS011;26549;50.918;5.338;2023-04-16T13:18:48;22.92;;;9.32;;
40827;SDS011;26549;50.918;5.338;2023-04-16T13:21:16;19.83;;;11.05;;
40827;SDS011;26549;50.918;5.338;2023-04-16T13:23:41;20.05;;;10.00;;
40827;SDS011;26549;50.918;5.338;2023-04-16T13:26:07;14.02;;;10.73;;
40827;SDS011;26549;50.918;5.338;2023-04-16T13:28:33;25.20;;;10.70;;
40827;SDS011;26549;50.918;5.338;2023-04-16T13:30:59;17.65;;;11.43;;
40827;SDS011;26549;50.918;5.338;2023-04-16T13:33:25;17.55;;;10.90;;
40827;SDS011;26549;50.918;5.338;2023-04-16T13:35:51;16.77;;;11.68;;
40827;SDS011;26549;50.918;5.338;2023-04-16T13:38:17;17.65;;;10.77;;
40827;SDS011;26549;50.918;5.338;2023-04-16T13:40:43;15.63;;;11.23;;
40827;SDS011;26549;50.918;5.338;2023-04-16T13:43:08;22.13;;;10.70;;
40827;SDS011;26549;50.918;5.338;2023-04-16T13:45:36;20.60;;;10.52;;
40827;SDS011;26549;50.918;5.338;2023-04-16T13:48:02;19.40;;;10.32;;
40827;SDS011;26549;50.918;5.338;2023-04-16T13:50:28;20.13;;;11.65;;
40827;SDS011;26549;50.918;5.338;2023-04-16T13:52:53;19.25;;;12.07;;
40827;SDS011;26549;50.918;5.338;2023-04-16T13:55:20;22.20;;;11.80;;
40827;SDS011;26549;50.918;5.338;2023-04-16T13:57:46;23.75;;;13.18;;
40827;SDS011;26549;50.918;5.338;2023-04-16T14:00:13;24.48;;;12.30;;
40827;SDS011;26549;50.918;5.338;2023-04-16T14:02:40;20.40;;;12.20;;
40827;SDS011;26549;50.918;5.338;2023-04-16T14:05:06;21.42;;;12.65;;
40827;SDS011;26549;50.918;5.338;2023-04-16T14:07:34;18.55;;;11.40;;
40827;SDS011;26549;50.918;5.338;2023-04-16T14:10:03;22.08;;;12.18;;
40827;SDS011;26549;50.918;5.338;2023-04-16T14:12:29;20.17;;;11.43;;
40827;SDS011;26549;50.918;5.338;2023-04-16T14:14:55;22.65;;;11.80;;
40827;SDS011;26549;50.918;5.338;2023-04-16T14:17:22;16.38;;;11.25;;
40827;SDS011;26549;50.918;5.338;2023-04-16T14:19:48;19.30;;;11.43;;
40827;SDS011;26549;50.918;5.338;2023-04-16T14:22:13;20.35;;;10.98;;
40827;SDS011;26549;50.918;5.338;2023-04-16T14:24:42;16.98;;;10.90;;
40827;SDS011;26549;50.918;5.338;2023-04-16T14:27:09;15.43;;;10.82;;
40827;SDS011;26549;50.918;5.338;2023-04-16T14:29:35;16.35;;;10.20;;
40827;SDS011;26549;50.918;5.338;2023-04-16T14:32:01;20.65;;;11.02;;
40827;SDS011;26549;50.918;5.338;2023-04-16T14:34:26;17.17;;;11.68;;
40827;SDS011;26549;50.918;5.338;2023-04-16T14:36:52;18.42;;;11.18;;
40827;SDS011;26549;50.918;5.338;2023-04-16T14:39:18;20.55;;;10.90;;
40827;SDS011;26549;50.918;5.338;2023-04-16T14:41:48;17.77;;;10.45;;
40827;SDS011;26549;50.918;5.338;2023-04-16T14:44:13;18.25;;;11.18;;